地図

経路データ

SID SEASON NUMBER BASIN SUBBASIN NAME ISO_TIME NATURE LAT LON WMO_WIND WMO_PRES WMO_AGENCY TRACK_TYPE DIST2LAND LANDFALL IFLAG USA_AGENCY USA_ATCF_ID USA_LAT USA_LON USA_RECORD USA_STATUS USA_WIND USA_PRES USA_SSHS USA_R34_NE USA_R34_SE USA_R34_SW USA_R34_NW USA_R50_NE USA_R50_SE USA_R50_SW USA_R50_NW USA_R64_NE USA_R64_SE USA_R64_SW USA_R64_NW USA_POCI USA_ROCI USA_RMW USA_EYE TOKYO_LAT TOKYO_LON TOKYO_GRADE TOKYO_WIND TOKYO_PRES TOKYO_R50_DIR TOKYO_R50_LONG TOKYO_R50_SHORT TOKYO_R30_DIR TOKYO_R30_LONG TOKYO_R30_SHORT TOKYO_LAND CMA_LAT CMA_LON CMA_CAT CMA_WIND CMA_PRES HKO_LAT HKO_LON HKO_CAT HKO_WIND HKO_PRES NEWDELHI_LAT NEWDELHI_LON NEWDELHI_GRADE NEWDELHI_WIND NEWDELHI_PRES NEWDELHI_CI NEWDELHI_DP NEWDELHI_POCI REUNION_LAT REUNION_LON REUNION_TYPE REUNION_WIND REUNION_PRES REUNION_TNUM REUNION_CI REUNION_RMW REUNION_R34_NE REUNION_R34_SE REUNION_R34_SW REUNION_R34_NW REUNION_R50_NE REUNION_R50_SE REUNION_R50_SW REUNION_R50_NW REUNION_R64_NE REUNION_R64_SE REUNION_R64_SW REUNION_R64_NW BOM_LAT BOM_LON BOM_TYPE BOM_WIND BOM_PRES BOM_TNUM BOM_CI BOM_RMW BOM_R34_NE BOM_R34_SE BOM_R34_SW BOM_R34_NW BOM_R50_NE BOM_R50_SE BOM_R50_SW BOM_R50_NW BOM_R64_NE BOM_R64_SE BOM_R64_SW BOM_R64_NW BOM_ROCI BOM_POCI BOM_EYE BOM_POS_METHOD BOM_PRES_METHOD NADI_LAT NADI_LON NADI_CAT NADI_WIND NADI_PRES WELLINGTON_LAT WELLINGTON_LON WELLINGTON_WIND WELLINGTON_PRES DS824_LAT DS824_LON DS824_STAGE DS824_WIND DS824_PRES TD9636_LAT TD9636_LON TD9636_STAGE TD9636_WIND TD9636_PRES TD9635_LAT TD9635_LON TD9635_WIND TD9635_PRES TD9635_ROCI NEUMANN_LAT NEUMANN_LON NEUMANN_CLASS NEUMANN_WIND NEUMANN_PRES MLC_LAT MLC_LON MLC_CLASS MLC_WIND MLC_PRES USA_GUST BOM_GUST BOM_GUST_PER REUNION_GUST REUNION_GUST_PER USA_SEAHGT USA_SEARAD_NE USA_SEARAD_SE USA_SEARAD_SW USA_SEARAD_NW STORM_SPEED STORM_DIR
1851305S08089 1852 19 SI MM NOT_NAMED 1851-11-01 06:00:00 NR -8.25000 88.6000 main 1354 1360 _____O____O___ -1 -8.20000 88.7000 99 9.90000 -8.30000 88.5000 7 7 248
1851305S08089 1852 19 SI MM NOT_NAMED 1851-11-01 09:00:00 NR -8.38408 88.2705 main 1394 1394 _____P____P___ -1 -8.30521 88.4579 99 -8.46294 88.0832 7 7 248
1851305S08089 1852 19 SI MM NOT_NAMED 1851-11-01 12:00:00 NR -8.51517 87.9495 main 1437 1437 _____P____P___ -1 -8.40983 88.2161 99 -8.62051 87.6829 7 7 247
1851305S08089 1852 19 SI MM NOT_NAMED 1851-11-01 15:00:00 NR -8.64061 87.6457 main 1471 1471 _____P____P___ -1 -8.51341 87.9752 99 -8.76781 87.3162 7 6 247
1851305S08089 1852 19 SI MM NOT_NAMED 1851-11-01 18:00:00 NR -8.75775 87.3678 main 1501 1501 _____P____O___ -1 -8.61550 87.7356 99 -8.90000 87.0000 7 6 247
1851305S08089 1852 19 SI MM NOT_NAMED 1851-11-01 21:00:00 NR -8.86491 87.1216 main 1535 1535 _____P____P___ -1 -8.71565 87.4977 99 -9.01417 86.7455 7 5 246
1851305S08089 1852 19 SI MM NOT_NAMED 1851-11-02 00:00:00 NR -8.96408 86.9010 main 1560 1560 _____P____P___ -1 -8.81341 87.2622 99 -9.11475 86.5398 7 5 245
1851305S08089 1852 19 SI MM NOT_NAMED 1851-11-02 03:00:00 NR -9.05816 86.6969 main 1585 1585 _____P____P___ -1 -8.90834 87.0295 99 -9.20797 86.3643 7 4 245
1851305S08089 1852 19 SI MM NOT_NAMED 1851-11-02 06:00:00 NR -9.15000 86.5000 main 1604 1604 _____O____O___ -1 -9.00000 86.8000 99 9.90000 -9.30000 86.2000 7 4 245
1851305S08089 1852 19 SI MM NOT_NAMED 1851-11-02 09:00:00 NR -9.24012 86.2980 main 1628 1628 _____P____P___ -1 -9.08842 86.5742 99 -9.39182 86.0218 7 4 245
1851305S08089 1852 19 SI MM NOT_NAMED 1851-11-02 12:00:00 NR -9.33019 86.1010 main 1653 1653 _____P____P___ -1 -9.17546 86.3522 99 -9.48492 85.8499 7 4 245
1851305S08089 1852 19 SI MM NOT_NAMED 1851-11-02 15:00:00 NR -9.42452 85.9060 main 1677 1677 _____P____P___ -1 -9.26348 86.1339 99 -9.58556 85.6780 7 4 243
1851305S08089 1852 19 SI MM NOT_NAMED 1851-11-02 18:00:00 NR -9.52740 85.7097 main 1702 1702 _____P____O___ -1 -9.35480 85.9195 99 -9.70000 85.5000 7 5 241
1851305S08089 1852 19 SI MM NOT_NAMED 1851-11-02 21:00:00 NR -9.63964 85.5060 main 1727 1727 _____P____P___ -1 -9.45178 85.7089 99 -9.82750 85.3031 7 5 240
1851305S08089 1852 19 SI MM NOT_NAMED 1851-11-03 00:00:00 NR -9.76337 85.3010 main 1757 1757 _____P____P___ -1 -9.55674 85.5021 99 -9.97001 85.1000 7 5 237
1851305S08089 1852 19 SI MM NOT_NAMED 1851-11-03 03:00:00 NR -9.89977 85.0980 main 1781 1781 _____P____P___ -1 -9.67204 85.2991 99 -10.1275 84.8968 7 5 234
1851305S08089 1852 19 SI MM NOT_NAMED 1851-11-03 06:00:00 NR -10.0500 84.9000 main 1806 1812 _____O____O___ -1 -9.80000 85.1000 99 9.90000 -10.3000 84.7000 7 5 232
1851305S08089 1852 19 SI MM NOT_NAMED 1851-11-03 09:00:00 NR -10.2076 84.6997 main 1836 1836 _____P____P___ -1 -9.93371 84.8898 99 -10.4815 84.5097 7 5 230
1851305S08089 1852 19 SI MM NOT_NAMED 1851-11-03 12:00:00 NR -10.3780 84.5048 main 1866 1866 _____P____P___ -1 -10.0785 84.6822 99 -10.6775 84.3275 7 5 227
1851305S08089 1852 19 SI MM NOT_NAMED 1851-11-03 15:00:00 NR -10.5597 84.3178 main 1893 1891 _____P____P___ -1 -10.2346 84.4791 99 -10.8847 84.1565 7 5 224
1851305S08089 1852 19 SI MM NOT_NAMED 1851-11-03 18:00:00 NR -10.7513 84.1413 main 1910 1910 _____P____O___ -1 -10.4026 84.2825 99 -11.1000 84.0000 7 5 221
1851305S08089 1852 19 SI MM NOT_NAMED 1851-11-03 21:00:00 NR -10.9421 83.9734 main 1919 1919 _____P____P___ -1 -10.5827 84.0943 99 -11.3015 83.8524 7 5 219
1851305S08089 1852 19 SI MM NOT_NAMED 1851-11-04 00:00:00 NR -11.1439 83.8182 main 1937 1937 _____P____P___ -1 -10.7754 83.9165 99 -11.5125 83.7199 7 5 215
1851305S08089 1852 19 SI MM NOT_NAMED 1851-11-04 03:00:00 NR -11.3616 83.6768 main 1968 1966 _____P____P___ -1 -10.9810 83.7511 99 -11.7422 83.6024 7 5 210
1851305S08089 1852 19 SI MM NOT_NAMED 1851-11-04 06:00:00 NR -11.6000 83.5500 main 1988 1986 _____O____O___ -1 -11.2000 83.6000 99 9.90000 -12.0000 83.5000 7 6 205
1851305S08089 1852 19 SI MM NOT_NAMED 1851-11-04 09:00:00 NR -11.8838 83.4244 main 2018 2018 _____P____P___ -1 -11.4471 83.4504 99 -12.3206 83.3985 7 6 201
1851305S08089 1852 19 SI MM NOT_NAMED 1851-11-04 12:00:00 NR -12.1880 83.3130 main 2049 2049 _____P____P___ -1 -11.7111 83.3134 99 -12.6650 83.3126 7 6 198
1851305S08089 1852 19 SI MM NOT_NAMED 1851-11-04 15:00:00 NR -12.4938 83.2176 main 2081 2081 _____P____P___ -1 -11.9857 83.1898 99 -13.0019 83.2454 7 6 196
1851305S08089 1852 19 SI MM NOT_NAMED 1851-11-04 18:00:00 NR -12.7824 83.1402 main 2113 2113 _____P____O___ -1 -12.2648 83.0804 99 -13.3000 83.2000 7 6 194
1851305S08089 1852 19 SI MM NOT_NAMED 1851-11-04 21:00:00 NR -13.0362 83.0821 main 2135 2135 _____P____P___ -1 -12.5420 82.9860 99 -13.5303 83.1783 7 5 191
1851305S08089 1852 19 SI MM NOT_NAMED 1851-11-05 00:00:00 NR -13.2643 83.0423 main 2167 2167 _____P____P___ -1 -12.8112 82.9072 99 -13.7175 83.1773 7 4 188
1851305S08089 1852 19 SI MM NOT_NAMED 1851-11-05 03:00:00 NR -13.4684 83.0163 main 2189 2189 _____P____P___ -1 -13.0659 82.8449 99 -13.8709 83.1877 7 4 186
1851305S08089 1852 19 SI MM NOT_NAMED 1851-11-05 06:00:00 NR -13.6500 83.0000 main 2200 2200 _____O____O___ -1 -13.3000 82.8000 99 9.90000 -14.0000 83.2000 7 3 188
1851305S08089 1852 19 SI MM NOT_NAMED 1851-11-05 09:00:00 NR -13.7938 82.9857 main 2213 2213 _____P____P___ -1 -13.4745 82.7647 99 -14.1131 83.2066 7 2 195
1851305S08089 1852 19 SI MM NOT_NAMED 1851-11-05 12:00:00 NR -13.8796 82.9448 main 2228 2228 _____P____P___ -1 -13.6280 82.7478 99 -14.2150 83.2076 7 2 207
1851305S08089 1852 19 SI MM NOT_NAMED 1851-11-05 15:00:00 NR -13.9481 82.8995 main 2228 2228 _____P____P___ -1 -13.7674 82.7469 99 -14.3094 83.2047 7 2 218
1851305S08089 1852 19 SI MM NOT_NAMED 1851-11-05 18:00:00 NR -13.9999 82.8478 main 2242 2242 _____P____O___ -1 -13.8999 82.7597 99 -14.4000 83.2000 7 1 234
1851305S08089 1852 19 SI MM NOT_NAMED 1851-11-05 21:00:00 NR -14.0323 82.7838 main 2242 2242 _____P________ -1 -14.0323 82.7838 99 7 2 194
1851305S08089 1852 19 SI MM NOT_NAMED 1851-11-06 00:00:00 NR -14.1718 82.8168 main 2257 2255 _____P________ -1 -14.1718 82.8168 99 7 3 167
1851305S08089 1852 19 SI MM NOT_NAMED 1851-11-06 03:00:00 NR -14.3253 82.8563 main 2255 2255 _____P________ -1 -14.3253 82.8563 99 7 3 166
1851305S08089 1852 19 SI MM NOT_NAMED 1851-11-06 06:00:00 NR -14.5000 82.9000 main 2269 2269 _____O________ -1 -14.5000 82.9000 99 9.90000 4 167
1851305S08089 1852 19 SI MM NOT_NAMED 1851-11-06 09:00:00 NR -14.7010 82.9458 main 2283 2274 _____P________ -1 -14.7010 82.9458 99 4 169
1851305S08089 1852 19 SI MM NOT_NAMED 1851-11-06 12:00:00 NR -14.9266 82.9932 main 2288 2288 _____P________ -1 -14.9266 82.9932 99 5 168
1851305S08089 1852 19 SI MM NOT_NAMED 1851-11-06 15:00:00 NR -15.1733 83.0421 main 2309 2301 _____P________ -1 -15.1733 83.0421 99 5 169
1851305S08089 1852 19 SI MM NOT_NAMED 1851-11-06 18:00:00 NR -15.4376 83.0921 main 2315 2315 _____P________ -1 -15.4376 83.0921 99 6 170
1851305S08089 1852 19 SI MM NOT_NAMED 1851-11-06 21:00:00 NR -15.7160 83.1431 main 2337 2336 _____P________ -1 -15.7160 83.1431 99 6 170
1851305S08089 1852 19 SI MM NOT_NAMED 1851-11-07 00:00:00 NR -16.0048 83.1949 main 2351 2351 _____P________ -1 -16.0048 83.1949 99 6 171
1851305S08089 1852 19 SI MM NOT_NAMED 1851-11-07 03:00:00 NR -16.3007 83.2472 main 2373 2365 _____P________ -1 -16.3007 83.2472 99 6 170
1851305S08089 1852 19 SI MM NOT_NAMED 1851-11-07 06:00:00 NR -16.6000 83.3000 main 2388 _____O________ -1 -16.6000 83.3000 99 9.90000 6 170

IBTrACS Databaseについて

本データベースは、米国NOAAが公開する1842年以降の世界の熱帯低気圧のベストトラックデータアーカイブInternational Best Track Archive for Climate Stewardship (IBTrACS)を、ウェブで閲覧しやすい形式に変換したものです。

最終更新日:2021-10-21